sensor_id;sensor_type;location;lat;lon;timestamp;P1;durP1;ratioP1;P2;durP2;ratioP2
9128;SDS011;4599;50.906;6.786;2022-09-28T00:02:03;2.10;;;0.80;;
9128;SDS011;4599;50.906;6.786;2022-09-28T00:06:05;1.70;;;0.97;;
9128;SDS011;4599;50.906;6.786;2022-09-28T00:10:08;1.27;;;0.90;;
9128;SDS011;4599;50.906;6.786;2022-09-28T00:14:10;1.17;;;0.93;;
9128;SDS011;4599;50.906;6.786;2022-09-28T00:18:11;0.93;;;0.83;;
9128;SDS011;4599;50.906;6.786;2022-09-28T00:22:12;2.07;;;1.00;;
9128;SDS011;4599;50.906;6.786;2022-09-28T00:26:15;1.00;;;0.70;;
9128;SDS011;4599;50.906;6.786;2022-09-28T00:30:16;1.57;;;0.90;;
9128;SDS011;4599;50.906;6.786;2022-09-28T00:34:19;1.40;;;0.90;;
9128;SDS011;4599;50.906;6.786;2022-09-28T00:38:20;2.57;;;0.80;;
9128;SDS011;4599;50.906;6.786;2022-09-28T00:42:23;1.63;;;0.83;;
9128;SDS011;4599;50.906;6.786;2022-09-28T00:46:26;3.10;;;1.10;;
9128;SDS011;4599;50.906;6.786;2022-09-28T00:50:32;3.17;;;1.23;;
9128;SDS011;4599;50.906;6.786;2022-09-28T00:54:34;2.53;;;1.13;;
9128;SDS011;4599;50.906;6.786;2022-09-28T00:58:38;4.13;;;1.10;;
9128;SDS011;4599;50.906;6.786;2022-09-28T01:02:40;2.50;;;1.00;;
9128;SDS011;4599;50.906;6.786;2022-09-28T01:06:42;2.27;;;1.23;;
9128;SDS011;4599;50.906;6.786;2022-09-28T01:10:44;2.37;;;1.40;;
9128;SDS011;4599;50.906;6.786;2022-09-28T01:14:47;3.77;;;1.30;;
9128;SDS011;4599;50.906;6.786;2022-09-28T01:18:51;1.97;;;1.20;;
9128;SDS011;4599;50.906;6.786;2022-09-28T01:23:10;3.37;;;1.20;;
9128;SDS011;4599;50.906;6.786;2022-09-28T01:27:18;2.33;;;1.30;;
9128;SDS011;4599;50.906;6.786;2022-09-28T01:31:20;2.90;;;1.40;;
9128;SDS011;4599;50.906;6.786;2022-09-28T01:35:25;2.60;;;1.20;;
9128;SDS011;4599;50.906;6.786;2022-09-28T01:39:29;2.47;;;1.37;;
9128;SDS011;4599;50.906;6.786;2022-09-28T01:43:34;4.13;;;1.50;;
9128;SDS011;4599;50.906;6.786;2022-09-28T01:47:38;1.80;;;1.47;;
9128;SDS011;4599;50.906;6.786;2022-09-28T01:51:41;3.40;;;1.50;;
9128;SDS011;4599;50.906;6.786;2022-09-28T01:55:44;3.23;;;1.50;;
9128;SDS011;4599;50.906;6.786;2022-09-28T01:59:50;5.10;;;1.73;;
9128;SDS011;4599;50.906;6.786;2022-09-28T02:03:54;5.83;;;1.80;;
9128;SDS011;4599;50.906;6.786;2022-09-28T02:07:58;3.60;;;2.10;;
9128;SDS011;4599;50.906;6.786;2022-09-28T02:12:04;3.17;;;2.00;;
9128;SDS011;4599;50.906;6.786;2022-09-28T02:16:12;3.57;;;2.10;;
9128;SDS011;4599;50.906;6.786;2022-09-28T02:20:14;4.80;;;2.43;;
9128;SDS011;4599;50.906;6.786;2022-09-28T02:24:17;6.37;;;2.50;;
9128;SDS011;4599;50.906;6.786;2022-09-28T02:28:22;5.13;;;2.40;;
9128;SDS011;4599;50.906;6.786;2022-09-28T02:32:25;3.10;;;2.60;;
9128;SDS011;4599;50.906;6.786;2022-09-28T02:36:28;5.57;;;2.90;;
9128;SDS011;4599;50.906;6.786;2022-09-28T02:40:31;8.23;;;3.00;;
9128;SDS011;4599;50.906;6.786;2022-09-28T02:44:42;6.07;;;3.10;;
9128;SDS011;4599;50.906;6.786;2022-09-28T02:48:56;6.67;;;3.10;;
9128;SDS011;4599;50.906;6.786;2022-09-28T02:53:24;4.23;;;3.40;;
9128;SDS011;4599;50.906;6.786;2022-09-28T02:57:32;10.13;;;3.87;;
9128;SDS011;4599;50.906;6.786;2022-09-28T03:01:39;5.73;;;3.40;;
9128;SDS011;4599;50.906;6.786;2022-09-28T03:05:45;6.83;;;3.80;;
9128;SDS011;4599;50.906;6.786;2022-09-28T03:09:48;6.90;;;4.20;;
9128;SDS011;4599;50.906;6.786;2022-09-28T03:13:53;7.23;;;4.70;;
9128;SDS011;4599;50.906;6.786;2022-09-28T03:17:55;11.47;;;4.70;;
9128;SDS011;4599;50.906;6.786;2022-09-28T03:21:58;6.93;;;4.67;;
9128;SDS011;4599;50.906;6.786;2022-09-28T03:26:00;6.60;;;4.90;;
9128;SDS011;4599;50.906;6.786;2022-09-28T03:30:01;7.87;;;4.30;;
9128;SDS011;4599;50.906;6.786;2022-09-28T03:34:02;8.20;;;5.47;;
9128;SDS011;4599;50.906;6.786;2022-09-28T03:38:05;7.77;;;5.37;;
9128;SDS011;4599;50.906;6.786;2022-09-28T03:42:06;8.33;;;4.80;;
9128;SDS011;4599;50.906;6.786;2022-09-28T03:46:08;8.67;;;5.03;;
9128;SDS011;4599;50.906;6.786;2022-09-28T03:50:09;6.67;;;4.53;;
9128;SDS011;4599;50.906;6.786;2022-09-28T03:54:12;7.33;;;4.50;;
9128;SDS011;4599;50.906;6.786;2022-09-28T03:58:14;7.17;;;4.53;;
9128;SDS011;4599;50.906;6.786;2022-09-28T04:02:16;5.73;;;4.10;;
9128;SDS011;4599;50.906;6.786;2022-09-28T04:06:17;6.70;;;5.00;;
9128;SDS011;4599;50.906;6.786;2022-09-28T04:10:19;7.73;;;4.50;;
9128;SDS011;4599;50.906;6.786;2022-09-28T04:14:21;5.87;;;4.40;;
9128;SDS011;4599;50.906;6.786;2022-09-28T04:18:22;8.10;;;5.17;;
9128;SDS011;4599;50.906;6.786;2022-09-28T04:22:24;9.63;;;5.10;;
9128;SDS011;4599;50.906;6.786;2022-09-28T04:26:26;11.13;;;5.40;;
9128;SDS011;4599;50.906;6.786;2022-09-28T04:30:28;7.37;;;5.23;;
9128;SDS011;4599;50.906;6.786;2022-09-28T04:34:29;7.83;;;5.70;;
9128;SDS011;4599;50.906;6.786;2022-09-28T04:38:36;6.10;;;5.13;;
9128;SDS011;4599;50.906;6.786;2022-09-28T04:42:54;9.27;;;5.13;;
9128;SDS011;4599;50.906;6.786;2022-09-28T04:46:56;11.33;;;4.97;;
9128;SDS011;4599;50.906;6.786;2022-09-28T04:51:03;9.83;;;5.63;;
9128;SDS011;4599;50.906;6.786;2022-09-28T04:55:04;7.47;;;5.23;;
9128;SDS011;4599;50.906;6.786;2022-09-28T04:59:07;9.27;;;5.10;;
9128;SDS011;4599;50.906;6.786;2022-09-28T05:03:09;9.23;;;5.40;;
9128;SDS011;4599;50.906;6.786;2022-09-28T05:07:10;7.97;;;5.10;;
9128;SDS011;4599;50.906;6.786;2022-09-28T05:11:11;10.50;;;5.27;;
9128;SDS011;4599;50.906;6.786;2022-09-28T05:15:14;8.20;;;5.30;;
9128;SDS011;4599;50.906;6.786;2022-09-28T05:19:16;5.50;;;4.23;;
9128;SDS011;4599;50.906;6.786;2022-09-28T05:23:17;6.27;;;4.53;;
9128;SDS011;4599;50.906;6.786;2022-09-28T05:27:18;5.90;;;4.30;;
9128;SDS011;4599;50.906;6.786;2022-09-28T05:31:21;5.40;;;4.73;;
9128;SDS011;4599;50.906;6.786;2022-09-28T05:35:22;8.53;;;4.90;;
9128;SDS011;4599;50.906;6.786;2022-09-28T05:39:23;7.93;;;4.50;;
9128;SDS011;4599;50.906;6.786;2022-09-28T05:43:25;12.67;;;5.03;;
9128;SDS011;4599;50.906;6.786;2022-09-28T05:47:27;6.20;;;4.77;;
9128;SDS011;4599;50.906;6.786;2022-09-28T05:51:29;6.00;;;4.43;;
9128;SDS011;4599;50.906;6.786;2022-09-28T05:55:30;7.73;;;4.50;;
9128;SDS011;4599;50.906;6.786;2022-09-28T05:59:32;7.40;;;4.67;;
9128;SDS011;4599;50.906;6.786;2022-09-28T06:03:35;8.13;;;5.10;;
9128;SDS011;4599;50.906;6.786;2022-09-28T06:07:36;8.93;;;5.00;;
9128;SDS011;4599;50.906;6.786;2022-09-28T06:11:37;12.43;;;4.53;;
9128;SDS011;4599;50.906;6.786;2022-09-28T06:15:40;4.30;;;3.90;;
9128;SDS011;4599;50.906;6.786;2022-09-28T06:19:42;9.50;;;4.03;;
9128;SDS011;4599;50.906;6.786;2022-09-28T06:23:44;6.47;;;4.07;;
9128;SDS011;4599;50.906;6.786;2022-09-28T06:27:52;8.03;;;3.80;;
9128;SDS011;4599;50.906;6.786;2022-09-28T06:31:54;7.10;;;4.20;;
9128;SDS011;4599;50.906;6.786;2022-09-28T06:35:58;6.00;;;3.97;;
9128;SDS011;4599;50.906;6.786;2022-09-28T06:40:00;7.20;;;3.47;;
9128;SDS011;4599;50.906;6.786;2022-09-28T06:44:01;4.70;;;3.80;;
9128;SDS011;4599;50.906;6.786;2022-09-28T06:48:03;5.63;;;4.50;;
9128;SDS011;4599;50.906;6.786;2022-09-28T06:52:06;6.60;;;4.27;;
9128;SDS011;4599;50.906;6.786;2022-09-28T06:56:07;6.30;;;3.80;;
9128;SDS011;4599;50.906;6.786;2022-09-28T07:00:09;7.67;;;3.90;;
9128;SDS011;4599;50.906;6.786;2022-09-28T07:04:11;6.90;;;4.37;;
9128;SDS011;4599;50.906;6.786;2022-09-28T07:08:15;8.90;;;3.90;;
9128;SDS011;4599;50.906;6.786;2022-09-28T07:12:17;6.43;;;3.50;;
9128;SDS011;4599;50.906;6.786;2022-09-28T07:16:18;4.73;;;3.27;;
9128;SDS011;4599;50.906;6.786;2022-09-28T07:20:26;3.80;;;3.17;;
9128;SDS011;4599;50.906;6.786;2022-09-28T07:24:29;5.63;;;3.27;;
9128;SDS011;4599;50.906;6.786;2022-09-28T07:28:31;5.60;;;3.17;;
9128;SDS011;4599;50.906;6.786;2022-09-28T07:32:32;7.50;;;3.30;;
9128;SDS011;4599;50.906;6.786;2022-09-28T07:36:35;3.53;;;3.00;;
9128;SDS011;4599;50.906;6.786;2022-09-28T07:40:38;8.23;;;3.37;;
9128;SDS011;4599;50.906;6.786;2022-09-28T07:44:39;3.27;;;2.73;;
9128;SDS011;4599;50.906;6.786;2022-09-28T07:48:41;5.33;;;3.10;;
9128;SDS011;4599;50.906;6.786;2022-09-28T07:52:42;3.63;;;2.97;;
9128;SDS011;4599;50.906;6.786;2022-09-28T07:56:45;4.50;;;3.10;;
9128;SDS011;4599;50.906;6.786;2022-09-28T08:00:47;5.40;;;2.90;;
9128;SDS011;4599;50.906;6.786;2022-09-28T08:04:49;3.80;;;2.80;;
9128;SDS011;4599;50.906;6.786;2022-09-28T08:08:50;7.07;;;3.30;;
9128;SDS011;4599;50.906;6.786;2022-09-28T08:12:54;5.57;;;2.83;;
9128;SDS011;4599;50.906;6.786;2022-09-28T08:16:56;5.27;;;3.10;;
9128;SDS011;4599;50.906;6.786;2022-09-28T08:20:57;6.83;;;3.00;;
9128;SDS011;4599;50.906;6.786;2022-09-28T08:24:58;4.20;;;2.50;;
9128;SDS011;4599;50.906;6.786;2022-09-28T08:29:01;3.60;;;2.30;;
9128;SDS011;4599;50.906;6.786;2022-09-28T08:33:02;6.77;;;2.47;;
9128;SDS011;4599;50.906;6.786;2022-09-28T08:37:04;5.80;;;2.00;;
9128;SDS011;4599;50.906;6.786;2022-09-28T08:41:08;4.80;;;1.60;;
9128;SDS011;4599;50.906;6.786;2022-09-28T08:45:13;2.80;;;1.40;;
9128;SDS011;4599;50.906;6.786;2022-09-28T08:49:19;5.93;;;1.73;;
9128;SDS011;4599;50.906;6.786;2022-09-28T08:53:29;5.77;;;1.60;;
9128;SDS011;4599;50.906;6.786;2022-09-28T08:57:34;4.27;;;1.57;;
9128;SDS011;4599;50.906;6.786;2022-09-28T09:01:39;2.63;;;1.10;;
9128;SDS011;4599;50.906;6.786;2022-09-28T09:05:46;2.63;;;1.30;;
9128;SDS011;4599;50.906;6.786;2022-09-28T09:09:52;5.47;;;1.40;;
9128;SDS011;4599;50.906;6.786;2022-09-28T09:18:21;2.37;;;1.20;;
9128;SDS011;4599;50.906;6.786;2022-09-28T09:22:28;6.13;;;1.27;;
9128;SDS011;4599;50.906;6.786;2022-09-28T09:26:34;6.67;;;1.30;;
9128;SDS011;4599;50.906;6.786;2022-09-28T09:30:38;8.23;;;1.20;;
9128;SDS011;4599;50.906;6.786;2022-09-28T09:34:58;1.97;;;1.10;;
9128;SDS011;4599;50.906;6.786;2022-09-28T09:39:08;1.63;;;0.83;;
9128;SDS011;4599;50.906;6.786;2022-09-28T09:43:21;2.97;;;0.93;;
9128;SDS011;4599;50.906;6.786;2022-09-28T09:47:32;1.80;;;0.70;;
9128;SDS011;4599;50.906;6.786;2022-09-28T09:51:39;3.67;;;0.90;;
9128;SDS011;4599;50.906;6.786;2022-09-28T09:55:43;1.23;;;0.80;;
9128;SDS011;4599;50.906;6.786;2022-09-28T09:59:45;3.00;;;0.90;;
9128;SDS011;4599;50.906;6.786;2022-09-28T10:03:47;4.90;;;1.30;;
9128;SDS011;4599;50.906;6.786;2022-09-28T10:07:52;4.07;;;1.20;;
9128;SDS011;4599;50.906;6.786;2022-09-28T10:11:54;4.53;;;1.10;;
9128;SDS011;4599;50.906;6.786;2022-09-28T10:15:56;1.80;;;0.90;;
9128;SDS011;4599;50.906;6.786;2022-09-28T10:19:57;2.00;;;1.00;;
9128;SDS011;4599;50.906;6.786;2022-09-28T10:24:00;4.40;;;1.20;;
9128;SDS011;4599;50.906;6.786;2022-09-28T10:28:02;3.83;;;1.20;;
9128;SDS011;4599;50.906;6.786;2022-09-28T10:32:08;6.57;;;1.20;;
9128;SDS011;4599;50.906;6.786;2022-09-28T10:36:17;2.30;;;1.17;;
9128;SDS011;4599;50.906;6.786;2022-09-28T10:40:26;2.70;;;1.20;;
9128;SDS011;4599;50.906;6.786;2022-09-28T10:44:29;4.17;;;1.07;;
9128;SDS011;4599;50.906;6.786;2022-09-28T10:48:34;1.57;;;1.00;;
9128;SDS011;4599;50.906;6.786;2022-09-28T10:52:40;3.30;;;1.47;;
9128;SDS011;4599;50.906;6.786;2022-09-28T10:56:43;1.60;;;0.90;;
9128;SDS011;4599;50.906;6.786;2022-09-28T11:00:46;4.20;;;1.20;;
9128;SDS011;4599;50.906;6.786;2022-09-28T11:04:49;3.40;;;1.33;;
9128;SDS011;4599;50.906;6.786;2022-09-28T11:08:51;3.37;;;1.10;;
9128;SDS011;4599;50.906;6.786;2022-09-28T11:12:54;1.67;;;1.00;;
9128;SDS011;4599;50.906;6.786;2022-09-28T11:17:15;2.90;;;1.33;;
9128;SDS011;4599;50.906;6.786;2022-09-28T11:21:17;4.03;;;1.07;;
9128;SDS011;4599;50.906;6.786;2022-09-28T11:25:20;3.00;;;0.97;;
9128;SDS011;4599;50.906;6.786;2022-09-28T11:29:24;3.70;;;0.90;;
9128;SDS011;4599;50.906;6.786;2022-09-28T11:33:28;2.93;;;0.90;;
9128;SDS011;4599;50.906;6.786;2022-09-28T11:37:48;0.70;;;0.60;;
9128;SDS011;4599;50.906;6.786;2022-09-28T11:41:53;1.67;;;0.83;;
9128;SDS011;4599;50.906;6.786;2022-09-28T11:45:57;4.30;;;1.00;;
9128;SDS011;4599;50.906;6.786;2022-09-28T11:50:02;1.30;;;0.80;;
9128;SDS011;4599;50.906;6.786;2022-09-28T11:54:08;1.90;;;0.77;;
9128;SDS011;4599;50.906;6.786;2022-09-28T11:58:13;2.27;;;1.20;;
9128;SDS011;4599;50.906;6.786;2022-09-28T12:02:19;1.60;;;1.17;;
9128;SDS011;4599;50.906;6.786;2022-09-28T12:06:24;3.30;;;1.03;;
9128;SDS011;4599;50.906;6.786;2022-09-28T12:10:30;2.77;;;0.90;;
9128;SDS011;4599;50.906;6.786;2022-09-28T12:14:37;1.20;;;0.80;;
9128;SDS011;4599;50.906;6.786;2022-09-28T12:18:43;2.17;;;0.80;;
9128;SDS011;4599;50.906;6.786;2022-09-28T12:22:47;1.50;;;0.80;;
9128;SDS011;4599;50.906;6.786;2022-09-28T12:26:53;4.73;;;1.37;;
9128;SDS011;4599;50.906;6.786;2022-09-28T12:30:55;1.97;;;1.00;;
9128;SDS011;4599;50.906;6.786;2022-09-28T12:34:58;3.43;;;0.87;;
9128;SDS011;4599;50.906;6.786;2022-09-28T12:39:03;4.63;;;1.07;;
9128;SDS011;4599;50.906;6.786;2022-09-28T12:43:37;2.70;;;1.37;;
9128;SDS011;4599;50.906;6.786;2022-09-28T12:47:45;1.03;;;0.90;;
9128;SDS011;4599;50.906;6.786;2022-09-28T12:51:50;6.73;;;1.20;;
9128;SDS011;4599;50.906;6.786;2022-09-28T12:55:52;1.73;;;0.90;;
9128;SDS011;4599;50.906;6.786;2022-09-28T12:59:59;3.33;;;1.30;;
9128;SDS011;4599;50.906;6.786;2022-09-28T13:04:08;5.43;;;1.10;;
9128;SDS011;4599;50.906;6.786;2022-09-28T13:08:16;6.30;;;1.20;;
9128;SDS011;4599;50.906;6.786;2022-09-28T13:12:25;3.13;;;1.10;;
9128;SDS011;4599;50.906;6.786;2022-09-28T13:16:30;1.57;;;1.00;;
9128;SDS011;4599;50.906;6.786;2022-09-28T13:20:42;4.00;;;0.97;;
9128;SDS011;4599;50.906;6.786;2022-09-28T13:24:50;2.10;;;0.90;;
9128;SDS011;4599;50.906;6.786;2022-09-28T13:29:01;1.90;;;1.10;;
9128;SDS011;4599;50.906;6.786;2022-09-28T13:33:03;1.77;;;1.00;;
9128;SDS011;4599;50.906;6.786;2022-09-28T13:37:16;6.13;;;1.03;;
9128;SDS011;4599;50.906;6.786;2022-09-28T13:41:22;3.10;;;1.00;;
9128;SDS011;4599;50.906;6.786;2022-09-28T13:45:29;3.47;;;1.30;;
9128;SDS011;4599;50.906;6.786;2022-09-28T13:49:34;3.80;;;1.00;;
9128;SDS011;4599;50.906;6.786;2022-09-28T13:53:45;3.40;;;0.90;;
9128;SDS011;4599;50.906;6.786;2022-09-28T13:57:49;2.80;;;0.90;;
9128;SDS011;4599;50.906;6.786;2022-09-28T14:01:54;7.93;;;1.17;;
9128;SDS011;4599;50.906;6.786;2022-09-28T14:06:06;2.63;;;1.00;;
9128;SDS011;4599;50.906;6.786;2022-09-28T14:10:18;4.00;;;1.23;;
9128;SDS011;4599;50.906;6.786;2022-09-28T14:14:28;1.20;;;0.90;;
9128;SDS011;4599;50.906;6.786;2022-09-28T14:18:29;2.40;;;1.10;;
9128;SDS011;4599;50.906;6.786;2022-09-28T14:22:32;3.37;;;1.37;;
9128;SDS011;4599;50.906;6.786;2022-09-28T14:26:42;3.03;;;1.30;;
9128;SDS011;4599;50.906;6.786;2022-09-28T14:30:49;4.77;;;1.30;;
9128;SDS011;4599;50.906;6.786;2022-09-28T14:34:55;3.10;;;1.30;;
9128;SDS011;4599;50.906;6.786;2022-09-28T14:38:56;3.33;;;1.50;;
9128;SDS011;4599;50.906;6.786;2022-09-28T14:47:33;4.40;;;1.43;;
9128;SDS011;4599;50.906;6.786;2022-09-28T14:51:42;4.00;;;1.27;;
9128;SDS011;4599;50.906;6.786;2022-09-28T14:55:45;3.03;;;1.30;;
9128;SDS011;4599;50.906;6.786;2022-09-28T14:59:46;3.37;;;1.23;;
9128;SDS011;4599;50.906;6.786;2022-09-28T15:03:50;3.10;;;1.20;;
9128;SDS011;4599;50.906;6.786;2022-09-28T15:07:52;2.77;;;1.00;;
9128;SDS011;4599;50.906;6.786;2022-09-28T15:11:57;3.93;;;1.53;;
9128;SDS011;4599;50.906;6.786;2022-09-28T15:15:59;2.27;;;1.10;;
9128;SDS011;4599;50.906;6.786;2022-09-28T15:20:21;2.33;;;1.13;;
9128;SDS011;4599;50.906;6.786;2022-09-28T15:24:23;1.23;;;1.10;;
9128;SDS011;4599;50.906;6.786;2022-09-28T15:28:25;2.50;;;1.10;;
9128;SDS011;4599;50.906;6.786;2022-09-28T15:32:27;4.03;;;1.20;;
9128;SDS011;4599;50.906;6.786;2022-09-28T15:36:30;3.83;;;1.20;;
9128;SDS011;4599;50.906;6.786;2022-09-28T15:40:33;3.10;;;1.40;;
9128;SDS011;4599;50.906;6.786;2022-09-28T15:44:37;3.63;;;1.20;;
9128;SDS011;4599;50.906;6.786;2022-09-28T15:48:39;5.03;;;1.30;;
9128;SDS011;4599;50.906;6.786;2022-09-28T15:52:51;1.73;;;1.00;;
9128;SDS011;4599;50.906;6.786;2022-09-28T15:56:54;2.97;;;1.27;;
9128;SDS011;4599;50.906;6.786;2022-09-28T16:01:21;2.50;;;0.90;;
9128;SDS011;4599;50.906;6.786;2022-09-28T16:05:30;4.67;;;1.00;;
9128;SDS011;4599;50.906;6.786;2022-09-28T16:09:34;1.43;;;0.80;;
9128;SDS011;4599;50.906;6.786;2022-09-28T16:13:54;1.27;;;0.80;;
9128;SDS011;4599;50.906;6.786;2022-09-28T16:17:57;0.77;;;0.67;;
9128;SDS011;4599;50.906;6.786;2022-09-28T16:22:00;2.03;;;0.87;;
9128;SDS011;4599;50.906;6.786;2022-09-28T16:26:04;1.23;;;0.70;;
9128;SDS011;4599;50.906;6.786;2022-09-28T16:30:13;2.37;;;0.80;;
9128;SDS011;4599;50.906;6.786;2022-09-28T16:34:16;0.90;;;0.80;;
9128;SDS011;4599;50.906;6.786;2022-09-28T16:38:18;1.53;;;0.70;;
9128;SDS011;4599;50.906;6.786;2022-09-28T16:42:21;1.23;;;0.70;;
9128;SDS011;4599;50.906;6.786;2022-09-28T16:46:22;0.63;;;0.63;;
9128;SDS011;4599;50.906;6.786;2022-09-28T16:50:27;2.43;;;0.80;;
9128;SDS011;4599;50.906;6.786;2022-09-28T16:54:29;0.70;;;0.70;;
9128;SDS011;4599;50.906;6.786;2022-09-28T16:58:34;1.60;;;0.80;;
9128;SDS011;4599;50.906;6.786;2022-09-28T17:02:35;3.70;;;1.00;;
9128;SDS011;4599;50.906;6.786;2022-09-28T17:06:47;4.17;;;0.90;;
9128;SDS011;4599;50.906;6.786;2022-09-28T17:10:49;1.40;;;0.90;;
9128;SDS011;4599;50.906;6.786;2022-09-28T17:15:13;1.93;;;1.00;;
9128;SDS011;4599;50.906;6.786;2022-09-28T17:19:15;1.90;;;1.10;;
9128;SDS011;4599;50.906;6.786;2022-09-28T17:23:17;3.03;;;1.10;;
9128;SDS011;4599;50.906;6.786;2022-09-28T17:27:21;3.13;;;1.30;;
9128;SDS011;4599;50.906;6.786;2022-09-28T17:31:24;2.80;;;1.60;;
9128;SDS011;4599;50.906;6.786;2022-09-28T17:35:25;5.40;;;1.33;;
9128;SDS011;4599;50.906;6.786;2022-09-28T17:39:27;1.97;;;1.20;;
9128;SDS011;4599;50.906;6.786;2022-09-28T17:43:28;3.77;;;1.50;;
9128;SDS011;4599;50.906;6.786;2022-09-28T17:47:31;3.97;;;1.30;;
9128;SDS011;4599;50.906;6.786;2022-09-28T17:51:35;3.33;;;1.30;;
9128;SDS011;4599;50.906;6.786;2022-09-28T17:55:37;2.80;;;1.30;;
9128;SDS011;4599;50.906;6.786;2022-09-28T17:59:38;4.00;;;1.40;;
9128;SDS011;4599;50.906;6.786;2022-09-28T18:03:41;2.50;;;1.50;;
9128;SDS011;4599;50.906;6.786;2022-09-28T18:07:42;1.53;;;1.10;;
9128;SDS011;4599;50.906;6.786;2022-09-28T18:11:48;2.67;;;1.03;;
9128;SDS011;4599;50.906;6.786;2022-09-28T18:15:51;2.57;;;1.20;;
9128;SDS011;4599;50.906;6.786;2022-09-28T18:19:54;3.10;;;1.20;;
9128;SDS011;4599;50.906;6.786;2022-09-28T18:23:56;3.30;;;1.20;;
9128;SDS011;4599;50.906;6.786;2022-09-28T18:27:57;3.00;;;1.20;;
9128;SDS011;4599;50.906;6.786;2022-09-28T18:31:58;6.13;;;1.20;;
9128;SDS011;4599;50.906;6.786;2022-09-28T18:36:02;2.07;;;0.90;;
9128;SDS011;4599;50.906;6.786;2022-09-28T18:40:04;3.13;;;1.30;;
9128;SDS011;4599;50.906;6.786;2022-09-28T18:44:06;1.77;;;1.10;;
9128;SDS011;4599;50.906;6.786;2022-09-28T18:48:07;5.33;;;1.20;;
9128;SDS011;4599;50.906;6.786;2022-09-28T18:52:10;5.00;;;1.50;;
9128;SDS011;4599;50.906;6.786;2022-09-28T18:56:12;2.53;;;1.40;;
9128;SDS011;4599;50.906;6.786;2022-09-28T19:00:14;2.23;;;1.37;;
9128;SDS011;4599;50.906;6.786;2022-09-28T19:04:15;4.53;;;1.40;;
9128;SDS011;4599;50.906;6.786;2022-09-28T19:08:18;4.70;;;1.40;;
9128;SDS011;4599;50.906;6.786;2022-09-28T19:12:24;4.20;;;1.20;;
9128;SDS011;4599;50.906;6.786;2022-09-28T19:16:26;3.07;;;1.57;;
9128;SDS011;4599;50.906;6.786;2022-09-28T19:20:27;5.87;;;1.63;;
9128;SDS011;4599;50.906;6.786;2022-09-28T19:24:30;4.17;;;1.80;;
9128;SDS011;4599;50.906;6.786;2022-09-28T19:28:32;7.80;;;1.80;;
9128;SDS011;4599;50.906;6.786;2022-09-28T19:32:33;4.00;;;1.70;;
9128;SDS011;4599;50.906;6.786;2022-09-28T19:36:34;3.50;;;1.63;;
9128;SDS011;4599;50.906;6.786;2022-09-28T19:40:37;2.63;;;1.47;;
9128;SDS011;4599;50.906;6.786;2022-09-28T19:44:38;3.77;;;1.60;;
9128;SDS011;4599;50.906;6.786;2022-09-28T19:48:41;4.17;;;1.50;;
9128;SDS011;4599;50.906;6.786;2022-09-28T19:52:43;2.47;;;1.67;;
9128;SDS011;4599;50.906;6.786;2022-09-28T19:56:45;2.90;;;2.43;;
9128;SDS011;4599;50.906;6.786;2022-09-28T20:00:47;3.23;;;1.73;;
9128;SDS011;4599;50.906;6.786;2022-09-28T20:04:48;2.77;;;1.63;;
9128;SDS011;4599;50.906;6.786;2022-09-28T20:08:50;2.60;;;1.60;;
9128;SDS011;4599;50.906;6.786;2022-09-28T20:12:52;4.57;;;1.77;;
9128;SDS011;4599;50.906;6.786;2022-09-28T20:16:54;5.37;;;1.60;;
9128;SDS011;4599;50.906;6.786;2022-09-28T20:20:59;7.87;;;1.80;;
9128;SDS011;4599;50.906;6.786;2022-09-28T20:25:00;5.83;;;1.70;;
9128;SDS011;4599;50.906;6.786;2022-09-28T20:29:03;4.33;;;1.80;;
9128;SDS011;4599;50.906;6.786;2022-09-28T20:33:05;4.23;;;1.63;;
9128;SDS011;4599;50.906;6.786;2022-09-28T20:37:06;2.90;;;1.80;;
9128;SDS011;4599;50.906;6.786;2022-09-28T20:41:08;3.70;;;1.57;;
9128;SDS011;4599;50.906;6.786;2022-09-28T20:45:11;3.27;;;1.50;;
9128;SDS011;4599;50.906;6.786;2022-09-28T20:49:13;3.40;;;1.60;;
9128;SDS011;4599;50.906;6.786;2022-09-28T20:53:14;4.80;;;1.60;;
9128;SDS011;4599;50.906;6.786;2022-09-28T20:57:15;3.13;;;1.63;;
9128;SDS011;4599;50.906;6.786;2022-09-28T21:01:18;1.67;;;1.43;;
9128;SDS011;4599;50.906;6.786;2022-09-28T21:05:20;3.57;;;1.57;;
9128;SDS011;4599;50.906;6.786;2022-09-28T21:09:21;3.00;;;1.50;;
9128;SDS011;4599;50.906;6.786;2022-09-28T21:13:23;3.73;;;2.10;;
9128;SDS011;4599;50.906;6.786;2022-09-28T21:17:26;3.30;;;1.80;;
9128;SDS011;4599;50.906;6.786;2022-09-28T21:21:27;3.03;;;1.60;;
9128;SDS011;4599;50.906;6.786;2022-09-28T21:25:29;2.50;;;1.80;;
9128;SDS011;4599;50.906;6.786;2022-09-28T21:29:30;4.23;;;1.80;;
9128;SDS011;4599;50.906;6.786;2022-09-28T21:33:33;4.63;;;1.63;;
9128;SDS011;4599;50.906;6.786;2022-09-28T21:37:34;3.43;;;1.67;;
9128;SDS011;4599;50.906;6.786;2022-09-28T21:41:36;2.17;;;1.90;;
9128;SDS011;4599;50.906;6.786;2022-09-28T21:45:37;3.13;;;1.87;;
9128;SDS011;4599;50.906;6.786;2022-09-28T21:49:40;2.53;;;1.50;;
9128;SDS011;4599;50.906;6.786;2022-09-28T21:53:42;4.20;;;1.77;;
9128;SDS011;4599;50.906;6.786;2022-09-28T21:57:44;3.87;;;2.03;;
9128;SDS011;4599;50.906;6.786;2022-09-28T22:01:45;4.13;;;1.90;;
9128;SDS011;4599;50.906;6.786;2022-09-28T22:05:50;3.37;;;1.90;;
9128;SDS011;4599;50.906;6.786;2022-09-28T22:09:51;2.53;;;1.90;;
9128;SDS011;4599;50.906;6.786;2022-09-28T22:13:54;2.37;;;1.70;;
9128;SDS011;4599;50.906;6.786;2022-09-28T22:17:56;4.37;;;1.70;;
9128;SDS011;4599;50.906;6.786;2022-09-28T22:21:59;3.53;;;1.70;;
9128;SDS011;4599;50.906;6.786;2022-09-28T22:26:00;4.83;;;1.53;;
9128;SDS011;4599;50.906;6.786;2022-09-28T22:30:02;5.30;;;1.90;;
9128;SDS011;4599;50.906;6.786;2022-09-28T22:34:04;4.87;;;1.90;;
9128;SDS011;4599;50.906;6.786;2022-09-28T22:38:06;3.40;;;1.97;;
9128;SDS011;4599;50.906;6.786;2022-09-28T22:42:08;2.43;;;1.60;;
9128;SDS011;4599;50.906;6.786;2022-09-28T22:46:10;3.10;;;1.43;;
9128;SDS011;4599;50.906;6.786;2022-09-28T22:50:11;2.33;;;1.53;;
9128;SDS011;4599;50.906;6.786;2022-09-28T22:54:14;2.70;;;1.50;;
9128;SDS011;4599;50.906;6.786;2022-09-28T22:58:15;2.27;;;1.30;;
9128;SDS011;4599;50.906;6.786;2022-09-28T23:02:17;2.93;;;1.60;;
9128;SDS011;4599;50.906;6.786;2022-09-28T23:06:19;2.23;;;1.57;;
9128;SDS011;4599;50.906;6.786;2022-09-28T23:10:22;2.90;;;1.50;;
9128;SDS011;4599;50.906;6.786;2022-09-28T23:14:23;3.00;;;1.63;;
9128;SDS011;4599;50.906;6.786;2022-09-28T23:18:26;1.77;;;1.40;;
9128;SDS011;4599;50.906;6.786;2022-09-28T23:22:27;2.97;;;1.60;;
9128;SDS011;4599;50.906;6.786;2022-09-28T23:26:31;1.60;;;1.50;;
9128;SDS011;4599;50.906;6.786;2022-09-28T23:30:32;2.37;;;1.50;;
9128;SDS011;4599;50.906;6.786;2022-09-28T23:34:33;1.47;;;1.33;;
9128;SDS011;4599;50.906;6.786;2022-09-28T23:38:35;1.80;;;1.23;;
9128;SDS011;4599;50.906;6.786;2022-09-28T23:42:38;3.30;;;1.57;;
9128;SDS011;4599;50.906;6.786;2022-09-28T23:46:39;1.27;;;1.17;;
9128;SDS011;4599;50.906;6.786;2022-09-28T23:50:41;4.90;;;1.67;;
9128;SDS011;4599;50.906;6.786;2022-09-28T23:54:42;1.37;;;1.20;;
9128;SDS011;4599;50.906;6.786;2022-09-28T23:58:45;3.43;;;1.40;;
